sensor_id;sensor_type;location;lat;lon;timestamp;temperature;humidity
11122;DHT22;5615;49.304;10.576;2023-03-23T00:01:09;9.10;99.90
11122;DHT22;5615;49.304;10.576;2023-03-23T00:03:38;9.20;99.90
11122;DHT22;5615;49.304;10.576;2023-03-23T00:06:06;9.20;99.90
11122;DHT22;5615;49.304;10.576;2023-03-23T00:08:34;9.20;99.90
11122;DHT22;5615;49.304;10.576;2023-03-23T00:11:03;9.20;99.90
11122;DHT22;5615;49.304;10.576;2023-03-23T00:13:29;9.30;99.90
11122;DHT22;5615;49.304;10.576;2023-03-23T00:15:59;9.30;99.90
11122;DHT22;5615;49.304;10.576;2023-03-23T00:18:26;9.40;99.90
11122;DHT22;5615;49.304;10.576;2023-03-23T00:20:55;9.30;99.90
11122;DHT22;5615;49.304;10.576;2023-03-23T00:23:23;9.40;99.90
11122;DHT22;5615;49.304;10.576;2023-03-23T00:25:52;9.40;99.90
11122;DHT22;5615;49.304;10.576;2023-03-23T00:28:22;9.40;99.90
11122;DHT22;5615;49.304;10.576;2023-03-23T00:30:55;9.60;99.90
11122;DHT22;5615;49.304;10.576;2023-03-23T00:33:23;9.80;99.90
11122;DHT22;5615;49.304;10.576;2023-03-23T00:35:50;9.90;99.90
11122;DHT22;5615;49.304;10.576;2023-03-23T00:38:18;10.00;99.90
11122;DHT22;5615;49.304;10.576;2023-03-23T00:40:45;10.10;99.90
11122;DHT22;5615;49.304;10.576;2023-03-23T00:43:12;10.10;99.90
11122;DHT22;5615;49.304;10.576;2023-03-23T00:45:39;10.20;99.90
11122;DHT22;5615;49.304;10.576;2023-03-23T00:48:06;10.30;99.90
11122;DHT22;5615;49.304;10.576;2023-03-23T00:50:34;10.60;99.90
11122;DHT22;5615;49.304;10.576;2023-03-23T00:53:00;10.80;99.90
11122;DHT22;5615;49.304;10.576;2023-03-23T00:55:27;11.10;99.90
11122;DHT22;5615;49.304;10.576;2023-03-23T00:57:55;11.30;99.90
11122;DHT22;5615;49.304;10.576;2023-03-23T01:00:22;11.40;99.90
11122;DHT22;5615;49.304;10.576;2023-03-23T01:02:49;11.60;99.90
11122;DHT22;5615;49.304;10.576;2023-03-23T01:05:18;11.60;99.90
11122;DHT22;5615;49.304;10.576;2023-03-23T01:07:46;11.70;99.90
11122;DHT22;5615;49.304;10.576;2023-03-23T01:10:14;11.80;99.90
11122;DHT22;5615;49.304;10.576;2023-03-23T01:12:43;11.80;99.90
11122;DHT22;5615;49.304;10.576;2023-03-23T01:15:14;11.70;99.90
11122;DHT22;5615;49.304;10.576;2023-03-23T01:17:41;11.80;99.90
11122;DHT22;5615;49.304;10.576;2023-03-23T01:20:08;11.80;99.90
11122;DHT22;5615;49.304;10.576;2023-03-23T01:22:36;11.80;99.90
11122;DHT22;5615;49.304;10.576;2023-03-23T01:25:05;11.80;99.90
11122;DHT22;5615;49.304;10.576;2023-03-23T01:27:32;11.80;99.90
11122;DHT22;5615;49.304;10.576;2023-03-23T01:29:58;11.80;99.90
11122;DHT22;5615;49.304;10.576;2023-03-23T01:32:25;11.80;99.90
11122;DHT22;5615;49.304;10.576;2023-03-23T01:34:52;11.80;99.90
11122;DHT22;5615;49.304;10.576;2023-03-23T01:37:18;11.80;99.90
11122;DHT22;5615;49.304;10.576;2023-03-23T01:39:45;11.80;99.90
11122;DHT22;5615;49.304;10.576;2023-03-23T01:42:13;11.80;99.90
11122;DHT22;5615;49.304;10.576;2023-03-23T01:45:17;11.90;99.90
11122;DHT22;5615;49.304;10.576;2023-03-23T01:47:47;11.90;99.90
11122;DHT22;5615;49.304;10.576;2023-03-23T01:50:16;11.90;99.90
11122;DHT22;5615;49.304;10.576;2023-03-23T01:52:43;11.90;99.90
11122;DHT22;5615;49.304;10.576;2023-03-23T01:55:10;12.00;99.90
11122;DHT22;5615;49.304;10.576;2023-03-23T01:57:38;12.00;99.90
11122;DHT22;5615;49.304;10.576;2023-03-23T02:00:07;12.00;99.90
11122;DHT22;5615;49.304;10.576;2023-03-23T02:02:41;12.10;99.90
11122;DHT22;5615;49.304;10.576;2023-03-23T02:05:12;12.00;99.90
11122;DHT22;5615;49.304;10.576;2023-03-23T02:07:39;12.00;99.90
11122;DHT22;5615;49.304;10.576;2023-03-23T02:10:07;12.00;99.90
11122;DHT22;5615;49.304;10.576;2023-03-23T02:12:34;12.00;99.90
11122;DHT22;5615;49.304;10.576;2023-03-23T02:15:02;12.00;99.90
11122;DHT22;5615;49.304;10.576;2023-03-23T02:17:33;12.00;99.90
11122;DHT22;5615;49.304;10.576;2023-03-23T02:20:17;11.90;99.90
11122;DHT22;5615;49.304;10.576;2023-03-23T02:23:17;12.00;99.90
11122;DHT22;5615;49.304;10.576;2023-03-23T02:25:58;12.00;99.90
11122;DHT22;5615;49.304;10.576;2023-03-23T02:28:54;12.00;99.90
11122;DHT22;5615;49.304;10.576;2023-03-23T02:31:44;12.00;99.90
11122;DHT22;5615;49.304;10.576;2023-03-23T02:34:16;12.00;99.90
11122;DHT22;5615;49.304;10.576;2023-03-23T02:36:46;12.00;99.90
11122;DHT22;5615;49.304;10.576;2023-03-23T02:39:18;12.00;99.90
11122;DHT22;5615;49.304;10.576;2023-03-23T02:41:50;12.10;99.90
11122;DHT22;5615;49.304;10.576;2023-03-23T02:44:19;12.20;99.90
11122;DHT22;5615;49.304;10.576;2023-03-23T02:46:47;12.20;99.90
11122;DHT22;5615;49.304;10.576;2023-03-23T02:49:16;12.20;99.90
11122;DHT22;5615;49.304;10.576;2023-03-23T02:51:44;12.10;99.90
11122;DHT22;5615;49.304;10.576;2023-03-23T02:54:13;12.20;99.90
11122;DHT22;5615;49.304;10.576;2023-03-23T02:56:41;12.20;99.90
11122;DHT22;5615;49.304;10.576;2023-03-23T02:59:08;12.20;99.90
11122;DHT22;5615;49.304;10.576;2023-03-23T03:01:55;12.10;99.90
11122;DHT22;5615;49.304;10.576;2023-03-23T03:04:26;12.10;99.90
11122;DHT22;5615;49.304;10.576;2023-03-23T03:09:46;12.00;99.90
11122;DHT22;5615;49.304;10.576;2023-03-23T03:12:20;12.00;99.90
11122;DHT22;5615;49.304;10.576;2023-03-23T03:14:53;12.00;99.90
11122;DHT22;5615;49.304;10.576;2023-03-23T03:17:25;12.00;99.90
11122;DHT22;5615;49.304;10.576;2023-03-23T03:19:56;12.00;99.90
11122;DHT22;5615;49.304;10.576;2023-03-23T03:22:25;12.00;99.90
11122;DHT22;5615;49.304;10.576;2023-03-23T03:24:55;12.00;99.90
11122;DHT22;5615;49.304;10.576;2023-03-23T03:27:23;11.90;99.90
11122;DHT22;5615;49.304;10.576;2023-03-23T03:29:54;11.90;99.90
11122;DHT22;5615;49.304;10.576;2023-03-23T03:32:25;11.90;99.90
11122;DHT22;5615;49.304;10.576;2023-03-23T03:34:59;11.90;99.90
11122;DHT22;5615;49.304;10.576;2023-03-23T03:37:25;11.90;99.90
11122;DHT22;5615;49.304;10.576;2023-03-23T03:39:52;11.80;99.90
11122;DHT22;5615;49.304;10.576;2023-03-23T03:42:19;11.70;99.90
11122;DHT22;5615;49.304;10.576;2023-03-23T03:44:45;11.70;99.90
11122;DHT22;5615;49.304;10.576;2023-03-23T03:47:12;11.70;99.90
11122;DHT22;5615;49.304;10.576;2023-03-23T03:49:39;11.60;99.90
11122;DHT22;5615;49.304;10.576;2023-03-23T03:52:07;11.60;99.90
11122;DHT22;5615;49.304;10.576;2023-03-23T03:54:33;11.70;99.90
11122;DHT22;5615;49.304;10.576;2023-03-23T03:57:00;11.70;99.90
11122;DHT22;5615;49.304;10.576;2023-03-23T03:59:27;11.70;99.90
11122;DHT22;5615;49.304;10.576;2023-03-23T04:01:53;11.70;99.90
11122;DHT22;5615;49.304;10.576;2023-03-23T04:04:20;11.80;99.90
11122;DHT22;5615;49.304;10.576;2023-03-23T04:06:48;11.80;99.90
11122;DHT22;5615;49.304;10.576;2023-03-23T04:09:16;11.80;99.90
11122;DHT22;5615;49.304;10.576;2023-03-23T04:11:44;11.80;99.90
11122;DHT22;5615;49.304;10.576;2023-03-23T04:14:11;11.80;99.90
11122;DHT22;5615;49.304;10.576;2023-03-23T04:16:38;11.80;99.90
11122;DHT22;5615;49.304;10.576;2023-03-23T04:19:05;11.90;99.90
11122;DHT22;5615;49.304;10.576;2023-03-23T04:21:32;11.90;99.90
11122;DHT22;5615;49.304;10.576;2023-03-23T04:23:59;11.90;99.90
11122;DHT22;5615;49.304;10.576;2023-03-23T04:26:28;12.00;99.90
11122;DHT22;5615;49.304;10.576;2023-03-23T04:28:55;12.10;99.90
11122;DHT22;5615;49.304;10.576;2023-03-23T04:31:21;12.10;99.90
11122;DHT22;5615;49.304;10.576;2023-03-23T04:33:50;12.10;99.90
11122;DHT22;5615;49.304;10.576;2023-03-23T04:36:18;12.10;99.90
11122;DHT22;5615;49.304;10.576;2023-03-23T04:38:45;12.20;99.90
11122;DHT22;5615;49.304;10.576;2023-03-23T04:41:12;12.20;99.90
11122;DHT22;5615;49.304;10.576;2023-03-23T04:43:39;12.20;99.90
11122;DHT22;5615;49.304;10.576;2023-03-23T04:46:08;12.00;99.90
11122;DHT22;5615;49.304;10.576;2023-03-23T04:48:35;11.90;99.90
11122;DHT22;5615;49.304;10.576;2023-03-23T04:51:04;11.70;99.90
11122;DHT22;5615;49.304;10.576;2023-03-23T04:53:31;11.70;99.90
11122;DHT22;5615;49.304;10.576;2023-03-23T04:55:58;11.60;99.90
11122;DHT22;5615;49.304;10.576;2023-03-23T04:58:26;11.50;99.90
11122;DHT22;5615;49.304;10.576;2023-03-23T05:00:55;11.40;99.90
11122;DHT22;5615;49.304;10.576;2023-03-23T05:03:21;11.40;99.90
11122;DHT22;5615;49.304;10.576;2023-03-23T05:05:48;11.40;99.90
11122;DHT22;5615;49.304;10.576;2023-03-23T05:08:17;11.40;99.90
11122;DHT22;5615;49.304;10.576;2023-03-23T05:10:50;11.40;99.90
11122;DHT22;5615;49.304;10.576;2023-03-23T05:13:16;11.40;99.90
11122;DHT22;5615;49.304;10.576;2023-03-23T05:15:43;11.40;99.90
11122;DHT22;5615;49.304;10.576;2023-03-23T05:18:11;11.40;99.90
11122;DHT22;5615;49.304;10.576;2023-03-23T05:20:38;11.40;99.90
11122;DHT22;5615;49.304;10.576;2023-03-23T05:23:04;11.40;99.90
11122;DHT22;5615;49.304;10.576;2023-03-23T05:25:31;11.40;99.90
11122;DHT22;5615;49.304;10.576;2023-03-23T05:28:02;11.50;99.90
11122;DHT22;5615;49.304;10.576;2023-03-23T05:30:28;11.50;99.90
11122;DHT22;5615;49.304;10.576;2023-03-23T05:32:55;11.50;99.90
11122;DHT22;5615;49.304;10.576;2023-03-23T05:35:23;11.50;99.90
11122;DHT22;5615;49.304;10.576;2023-03-23T05:37:49;11.50;99.90
11122;DHT22;5615;49.304;10.576;2023-03-23T05:40:19;11.50;99.90
11122;DHT22;5615;49.304;10.576;2023-03-23T05:42:47;11.60;99.90
11122;DHT22;5615;49.304;10.576;2023-03-23T05:45:14;11.60;99.90
11122;DHT22;5615;49.304;10.576;2023-03-23T05:47:41;11.70;99.90
11122;DHT22;5615;49.304;10.576;2023-03-23T05:50:09;11.70;99.90
11122;DHT22;5615;49.304;10.576;2023-03-23T05:52:37;11.70;99.90
11122;DHT22;5615;49.304;10.576;2023-03-23T05:55:06;11.80;99.90
11122;DHT22;5615;49.304;10.576;2023-03-23T05:57:33;11.80;99.90
11122;DHT22;5615;49.304;10.576;2023-03-23T06:00:00;11.80;99.90
11122;DHT22;5615;49.304;10.576;2023-03-23T06:02:39;11.90;99.90
11122;DHT22;5615;49.304;10.576;2023-03-23T06:05:09;11.80;99.90
11122;DHT22;5615;49.304;10.576;2023-03-23T06:07:37;11.90;99.90
11122;DHT22;5615;49.304;10.576;2023-03-23T06:10:05;11.90;99.90
11122;DHT22;5615;49.304;10.576;2023-03-23T06:12:32;11.80;99.90
11122;DHT22;5615;49.304;10.576;2023-03-23T06:14:59;11.80;99.90
11122;DHT22;5615;49.304;10.576;2023-03-23T06:17:26;11.80;99.90
11122;DHT22;5615;49.304;10.576;2023-03-23T06:19:53;11.80;99.90
11122;DHT22;5615;49.304;10.576;2023-03-23T06:22:19;11.80;99.90
11122;DHT22;5615;49.304;10.576;2023-03-23T06:24:47;11.80;99.90
11122;DHT22;5615;49.304;10.576;2023-03-23T06:27:14;11.90;99.90
11122;DHT22;5615;49.304;10.576;2023-03-23T06:29:41;11.90;99.90
11122;DHT22;5615;49.304;10.576;2023-03-23T06:32:11;12.00;99.90
11122;DHT22;5615;49.304;10.576;2023-03-23T06:34:38;12.10;99.90
11122;DHT22;5615;49.304;10.576;2023-03-23T06:37:06;12.10;99.90
11122;DHT22;5615;49.304;10.576;2023-03-23T06:39:32;12.20;99.90
11122;DHT22;5615;49.304;10.576;2023-03-23T06:42:00;12.30;99.90
11122;DHT22;5615;49.304;10.576;2023-03-23T06:44:27;12.40;99.90
11122;DHT22;5615;49.304;10.576;2023-03-23T06:46:54;12.50;99.90
11122;DHT22;5615;49.304;10.576;2023-03-23T06:49:20;12.60;99.90
11122;DHT22;5615;49.304;10.576;2023-03-23T06:51:48;12.70;99.90
11122;DHT22;5615;49.304;10.576;2023-03-23T06:54:14;12.80;99.90
11122;DHT22;5615;49.304;10.576;2023-03-23T06:56:41;12.90;99.90
11122;DHT22;5615;49.304;10.576;2023-03-23T06:59:09;12.90;99.90
11122;DHT22;5615;49.304;10.576;2023-03-23T07:01:36;13.00;99.90
11122;DHT22;5615;49.304;10.576;2023-03-23T07:04:03;13.00;99.90
11122;DHT22;5615;49.304;10.576;2023-03-23T07:06:30;13.00;99.90
11122;DHT22;5615;49.304;10.576;2023-03-23T07:08:57;13.00;99.90
11122;DHT22;5615;49.304;10.576;2023-03-23T07:11:24;12.90;99.90
11122;DHT22;5615;49.304;10.576;2023-03-23T07:13:50;13.00;99.90
11122;DHT22;5615;49.304;10.576;2023-03-23T07:16:18;13.00;99.90
11122;DHT22;5615;49.304;10.576;2023-03-23T07:18:45;13.00;99.90
11122;DHT22;5615;49.304;10.576;2023-03-23T07:21:11;13.10;99.90
11122;DHT22;5615;49.304;10.576;2023-03-23T07:23:38;13.00;99.90
11122;DHT22;5615;49.304;10.576;2023-03-23T07:26:06;13.00;99.90
11122;DHT22;5615;49.304;10.576;2023-03-23T07:28:33;13.10;99.90
11122;DHT22;5615;49.304;10.576;2023-03-23T07:30:59;13.10;99.90
11122;DHT22;5615;49.304;10.576;2023-03-23T07:33:27;13.10;99.90
11122;DHT22;5615;49.304;10.576;2023-03-23T07:35:54;13.20;99.90
11122;DHT22;5615;49.304;10.576;2023-03-23T07:38:20;13.30;99.90
11122;DHT22;5615;49.304;10.576;2023-03-23T07:40:47;13.40;99.90
11122;DHT22;5615;49.304;10.576;2023-03-23T07:43:14;13.60;99.90
11122;DHT22;5615;49.304;10.576;2023-03-23T07:45:41;13.70;99.90
11122;DHT22;5615;49.304;10.576;2023-03-23T07:48:07;13.80;99.90
11122;DHT22;5615;49.304;10.576;2023-03-23T07:50:35;13.90;99.90
11122;DHT22;5615;49.304;10.576;2023-03-23T07:53:03;14.00;99.90
11122;DHT22;5615;49.304;10.576;2023-03-23T07:55:29;14.20;99.90
11122;DHT22;5615;49.304;10.576;2023-03-23T07:57:56;14.20;99.90
11122;DHT22;5615;49.304;10.576;2023-03-23T08:00:23;14.20;99.90
11122;DHT22;5615;49.304;10.576;2023-03-23T08:02:53;14.10;99.90
11122;DHT22;5615;49.304;10.576;2023-03-23T08:05:21;14.10;99.90
11122;DHT22;5615;49.304;10.576;2023-03-23T08:07:50;14.00;99.90
11122;DHT22;5615;49.304;10.576;2023-03-23T08:10:18;14.00;99.90
11122;DHT22;5615;49.304;10.576;2023-03-23T08:12:45;13.90;99.90
11122;DHT22;5615;49.304;10.576;2023-03-23T08:15:13;13.90;99.90
11122;DHT22;5615;49.304;10.576;2023-03-23T08:17:41;13.90;99.90
11122;DHT22;5615;49.304;10.576;2023-03-23T08:20:09;14.00;99.90
11122;DHT22;5615;49.304;10.576;2023-03-23T08:22:39;14.00;99.90
11122;DHT22;5615;49.304;10.576;2023-03-23T08:25:09;14.10;99.90
11122;DHT22;5615;49.304;10.576;2023-03-23T08:27:37;14.10;99.90
11122;DHT22;5615;49.304;10.576;2023-03-23T08:30:10;14.10;99.90
11122;DHT22;5615;49.304;10.576;2023-03-23T08:32:38;14.20;99.90
11122;DHT22;5615;49.304;10.576;2023-03-23T08:35:05;14.40;99.90
11122;DHT22;5615;49.304;10.576;2023-03-23T08:37:32;14.50;99.90
11122;DHT22;5615;49.304;10.576;2023-03-23T08:39:59;14.60;99.90
11122;DHT22;5615;49.304;10.576;2023-03-23T08:42:27;14.90;99.90
11122;DHT22;5615;49.304;10.576;2023-03-23T08:44:53;15.10;99.90
11122;DHT22;5615;49.304;10.576;2023-03-23T08:47:21;14.90;99.90
11122;DHT22;5615;49.304;10.576;2023-03-23T08:49:47;14.90;99.90
11122;DHT22;5615;49.304;10.576;2023-03-23T08:52:18;14.90;99.90
11122;DHT22;5615;49.304;10.576;2023-03-23T08:54:44;15.10;99.90
11122;DHT22;5615;49.304;10.576;2023-03-23T08:57:13;15.00;99.90
11122;DHT22;5615;49.304;10.576;2023-03-23T08:59:41;15.00;99.90
11122;DHT22;5615;49.304;10.576;2023-03-23T09:02:09;15.00;99.90
11122;DHT22;5615;49.304;10.576;2023-03-23T09:04:37;15.00;99.90
11122;DHT22;5615;49.304;10.576;2023-03-23T09:07:03;15.00;99.90
11122;DHT22;5615;49.304;10.576;2023-03-23T09:09:30;15.00;99.90
11122;DHT22;5615;49.304;10.576;2023-03-23T09:11:57;15.30;99.90
11122;DHT22;5615;49.304;10.576;2023-03-23T09:14:24;15.40;99.90
11122;DHT22;5615;49.304;10.576;2023-03-23T09:16:52;15.70;99.90
11122;DHT22;5615;49.304;10.576;2023-03-23T09:19:18;15.70;99.90
11122;DHT22;5615;49.304;10.576;2023-03-23T09:21:45;15.70;99.90
11122;DHT22;5615;49.304;10.576;2023-03-23T09:24:12;15.60;99.90
11122;DHT22;5615;49.304;10.576;2023-03-23T09:26:39;15.50;99.90
11122;DHT22;5615;49.304;10.576;2023-03-23T09:29:06;15.50;99.90
11122;DHT22;5615;49.304;10.576;2023-03-23T09:31:33;15.50;99.90
11122;DHT22;5615;49.304;10.576;2023-03-23T09:34:03;15.40;99.90
11122;DHT22;5615;49.304;10.576;2023-03-23T09:36:31;15.50;99.90
11122;DHT22;5615;49.304;10.576;2023-03-23T09:38:58;15.70;99.90
11122;DHT22;5615;49.304;10.576;2023-03-23T09:41:37;15.60;99.90
11122;DHT22;5615;49.304;10.576;2023-03-23T09:44:15;15.40;99.90
11122;DHT22;5615;49.304;10.576;2023-03-23T09:46:52;15.30;99.90
11122;DHT22;5615;49.304;10.576;2023-03-23T09:49:25;15.20;99.90
11122;DHT22;5615;49.304;10.576;2023-03-23T09:51:56;15.10;99.90
11122;DHT22;5615;49.304;10.576;2023-03-23T09:54:26;14.90;99.90
11122;DHT22;5615;49.304;10.576;2023-03-23T09:56:54;14.90;99.90
11122;DHT22;5615;49.304;10.576;2023-03-23T09:59:27;14.90;99.90
11122;DHT22;5615;49.304;10.576;2023-03-23T10:01:57;14.70;99.90
11122;DHT22;5615;49.304;10.576;2023-03-23T10:04:34;14.60;99.90
11122;DHT22;5615;49.304;10.576;2023-03-23T10:07:10;14.50;99.90
11122;DHT22;5615;49.304;10.576;2023-03-23T10:09:37;14.50;99.90
11122;DHT22;5615;49.304;10.576;2023-03-23T10:12:10;14.40;99.90
11122;DHT22;5615;49.304;10.576;2023-03-23T10:14:49;14.50;99.90
11122;DHT22;5615;49.304;10.576;2023-03-23T10:17:22;14.50;99.90
11122;DHT22;5615;49.304;10.576;2023-03-23T10:19:55;14.60;99.90
11122;DHT22;5615;49.304;10.576;2023-03-23T10:22:28;14.70;99.90
11122;DHT22;5615;49.304;10.576;2023-03-23T10:25:03;14.30;99.90
11122;DHT22;5615;49.304;10.576;2023-03-23T10:27:37;14.20;99.90
11122;DHT22;5615;49.304;10.576;2023-03-23T10:30:15;14.20;99.90
11122;DHT22;5615;49.304;10.576;2023-03-23T10:32:49;14.30;99.90
11122;DHT22;5615;49.304;10.576;2023-03-23T10:35:20;14.30;99.90
11122;DHT22;5615;49.304;10.576;2023-03-23T10:37:52;14.40;99.90
11122;DHT22;5615;49.304;10.576;2023-03-23T10:40:21;14.30;99.90
11122;DHT22;5615;49.304;10.576;2023-03-23T10:42:50;14.30;99.90
11122;DHT22;5615;49.304;10.576;2023-03-23T10:45:19;14.30;99.90
11122;DHT22;5615;49.304;10.576;2023-03-23T10:47:51;14.20;99.90
11122;DHT22;5615;49.304;10.576;2023-03-23T10:50:25;14.20;99.90
11122;DHT22;5615;49.304;10.576;2023-03-23T10:52:55;14.20;99.90
11122;DHT22;5615;49.304;10.576;2023-03-23T10:55:24;14.30;99.90
11122;DHT22;5615;49.304;10.576;2023-03-23T10:58:03;14.20;99.90
11122;DHT22;5615;49.304;10.576;2023-03-23T11:00:31;14.10;99.90
11122;DHT22;5615;49.304;10.576;2023-03-23T11:03:00;14.10;99.90
11122;DHT22;5615;49.304;10.576;2023-03-23T11:05:36;14.10;99.90
11122;DHT22;5615;49.304;10.576;2023-03-23T11:08:11;14.20;99.90
11122;DHT22;5615;49.304;10.576;2023-03-23T11:10:40;14.10;99.90
11122;DHT22;5615;49.304;10.576;2023-03-23T11:13:12;14.20;99.90
11122;DHT22;5615;49.304;10.576;2023-03-23T11:15:41;14.00;99.90
11122;DHT22;5615;49.304;10.576;2023-03-23T11:18:10;14.00;99.90
11122;DHT22;5615;49.304;10.576;2023-03-23T11:20:41;14.10;99.90
11122;DHT22;5615;49.304;10.576;2023-03-23T11:23:13;14.40;99.90
11122;DHT22;5615;49.304;10.576;2023-03-23T11:25:53;14.20;99.90
11122;DHT22;5615;49.304;10.576;2023-03-23T11:28:20;14.30;99.90
11122;DHT22;5615;49.304;10.576;2023-03-23T11:30:47;14.40;99.90
11122;DHT22;5615;49.304;10.576;2023-03-23T11:33:14;14.20;99.90
11122;DHT22;5615;49.304;10.576;2023-03-23T11:35:45;14.00;99.90
11122;DHT22;5615;49.304;10.576;2023-03-23T11:38:16;14.00;99.90
11122;DHT22;5615;49.304;10.576;2023-03-23T11:40:47;14.00;99.90
11122;DHT22;5615;49.304;10.576;2023-03-23T11:43:18;14.10;99.90
11122;DHT22;5615;49.304;10.576;2023-03-23T11:45:48;14.10;99.90
11122;DHT22;5615;49.304;10.576;2023-03-23T11:48:21;14.10;99.90
11122;DHT22;5615;49.304;10.576;2023-03-23T11:50:54;14.20;99.90
11122;DHT22;5615;49.304;10.576;2023-03-23T11:53:35;14.40;99.90
11122;DHT22;5615;49.304;10.576;2023-03-23T11:56:13;15.10;99.90
11122;DHT22;5615;49.304;10.576;2023-03-23T11:58:40;15.20;99.90
11122;DHT22;5615;49.304;10.576;2023-03-23T12:01:15;15.40;99.90
11122;DHT22;5615;49.304;10.576;2023-03-23T12:03:56;15.60;99.90
11122;DHT22;5615;49.304;10.576;2023-03-23T12:06:34;15.80;99.90
11122;DHT22;5615;49.304;10.576;2023-03-23T12:09:11;16.00;99.90
11122;DHT22;5615;49.304;10.576;2023-03-23T12:11:51;15.90;99.90
11122;DHT22;5615;49.304;10.576;2023-03-23T12:14:24;15.70;99.90
11122;DHT22;5615;49.304;10.576;2023-03-23T12:16:59;15.70;99.90
11122;DHT22;5615;49.304;10.576;2023-03-23T12:19:37;15.90;99.90
11122;DHT22;5615;49.304;10.576;2023-03-23T12:22:16;15.50;99.90
11122;DHT22;5615;49.304;10.576;2023-03-23T12:24:57;15.70;99.90
11122;DHT22;5615;49.304;10.576;2023-03-23T12:27:32;15.80;99.90
11122;DHT22;5615;49.304;10.576;2023-03-23T12:30:19;16.20;99.90
11122;DHT22;5615;49.304;10.576;2023-03-23T12:32:58;15.50;99.90
11122;DHT22;5615;49.304;10.576;2023-03-23T12:35:35;15.10;99.90
11122;DHT22;5615;49.304;10.576;2023-03-23T12:38:19;15.10;99.90
11122;DHT22;5615;49.304;10.576;2023-03-23T12:41:05;14.90;99.90
11122;DHT22;5615;49.304;10.576;2023-03-23T12:43:38;14.80;99.90
11122;DHT22;5615;49.304;10.576;2023-03-23T12:46:22;15.00;99.90
11122;DHT22;5615;49.304;10.576;2023-03-23T12:48:56;14.90;99.90
11122;DHT22;5615;49.304;10.576;2023-03-23T12:51:29;15.00;99.90
11122;DHT22;5615;49.304;10.576;2023-03-23T12:54:07;15.00;99.90
11122;DHT22;5615;49.304;10.576;2023-03-23T12:56:38;15.00;99.90
11122;DHT22;5615;49.304;10.576;2023-03-23T12:59:12;14.80;99.90
11122;DHT22;5615;49.304;10.576;2023-03-23T13:01:43;14.90;99.90
11122;DHT22;5615;49.304;10.576;2023-03-23T13:04:13;14.90;99.90
11122;DHT22;5615;49.304;10.576;2023-03-23T13:06:43;14.60;99.90
11122;DHT22;5615;49.304;10.576;2023-03-23T13:09:17;14.40;99.90
11122;DHT22;5615;49.304;10.576;2023-03-23T13:11:47;14.30;99.90
11122;DHT22;5615;49.304;10.576;2023-03-23T13:14:22;14.30;99.90
11122;DHT22;5615;49.304;10.576;2023-03-23T13:16:57;14.30;99.90
11122;DHT22;5615;49.304;10.576;2023-03-23T13:19:28;14.40;99.90
11122;DHT22;5615;49.304;10.576;2023-03-23T13:22:02;14.30;99.90
11122;DHT22;5615;49.304;10.576;2023-03-23T13:24:36;14.30;99.90
11122;DHT22;5615;49.304;10.576;2023-03-23T13:27:05;14.50;99.90
11122;DHT22;5615;49.304;10.576;2023-03-23T13:29:43;14.60;99.90
11122;DHT22;5615;49.304;10.576;2023-03-23T13:32:12;14.80;99.90
11122;DHT22;5615;49.304;10.576;2023-03-23T13:34:41;14.90;99.90
11122;DHT22;5615;49.304;10.576;2023-03-23T13:37:11;14.80;99.90
11122;DHT22;5615;49.304;10.576;2023-03-23T13:39:51;14.80;99.90
11122;DHT22;5615;49.304;10.576;2023-03-23T13:42:22;14.70;99.90
11122;DHT22;5615;49.304;10.576;2023-03-23T13:45:05;14.70;99.90
11122;DHT22;5615;49.304;10.576;2023-03-23T13:47:37;14.60;99.90
11122;DHT22;5615;49.304;10.576;2023-03-23T13:50:11;14.80;99.90
11122;DHT22;5615;49.304;10.576;2023-03-23T13:52:46;15.00;99.90
11122;DHT22;5615;49.304;10.576;2023-03-23T13:55:37;14.80;99.90
11122;DHT22;5615;49.304;10.576;2023-03-23T13:58:21;14.90;99.90
11122;DHT22;5615;49.304;10.576;2023-03-23T14:01:01;15.00;99.90
11122;DHT22;5615;49.304;10.576;2023-03-23T14:03:35;14.90;99.90
11122;DHT22;5615;49.304;10.576;2023-03-23T14:06:04;14.70;99.90
11122;DHT22;5615;49.304;10.576;2023-03-23T14:08:40;14.60;99.90
11122;DHT22;5615;49.304;10.576;2023-03-23T14:11:14;14.60;99.90
11122;DHT22;5615;49.304;10.576;2023-03-23T14:13:45;14.70;99.90
11122;DHT22;5615;49.304;10.576;2023-03-23T14:16:18;14.80;99.90
11122;DHT22;5615;49.304;10.576;2023-03-23T14:18:53;14.70;99.90
11122;DHT22;5615;49.304;10.576;2023-03-23T14:21:33;14.50;99.90
11122;DHT22;5615;49.304;10.576;2023-03-23T14:24:02;14.60;99.90
11122;DHT22;5615;49.304;10.576;2023-03-23T14:26:34;14.70;99.90
11122;DHT22;5615;49.304;10.576;2023-03-23T14:29:01;14.60;99.90
11122;DHT22;5615;49.304;10.576;2023-03-23T14:31:29;14.70;99.90
11122;DHT22;5615;49.304;10.576;2023-03-23T14:33:56;15.00;99.90
11122;DHT22;5615;49.304;10.576;2023-03-23T14:36:28;15.10;99.90
11122;DHT22;5615;49.304;10.576;2023-03-23T14:39:00;15.20;99.90
11122;DHT22;5615;49.304;10.576;2023-03-23T14:41:30;15.30;99.90
11122;DHT22;5615;49.304;10.576;2023-03-23T14:44:00;15.40;99.90
11122;DHT22;5615;49.304;10.576;2023-03-23T14:46:29;15.30;99.90
11122;DHT22;5615;49.304;10.576;2023-03-23T14:48:58;15.50;99.90
11122;DHT22;5615;49.304;10.576;2023-03-23T14:51:25;15.20;99.90
11122;DHT22;5615;49.304;10.576;2023-03-23T14:53:53;15.10;99.90
11122;DHT22;5615;49.304;10.576;2023-03-23T14:56:21;15.10;99.90
11122;DHT22;5615;49.304;10.576;2023-03-23T14:58:51;15.20;99.90
11122;DHT22;5615;49.304;10.576;2023-03-23T15:01:20;15.10;99.90
11122;DHT22;5615;49.304;10.576;2023-03-23T15:03:53;15.10;99.90
11122;DHT22;5615;49.304;10.576;2023-03-23T15:06:23;15.20;99.90
11122;DHT22;5615;49.304;10.576;2023-03-23T15:08:53;15.00;99.90
11122;DHT22;5615;49.304;10.576;2023-03-23T15:11:24;14.90;99.90
11122;DHT22;5615;49.304;10.576;2023-03-23T15:13:56;15.00;99.90
11122;DHT22;5615;49.304;10.576;2023-03-23T15:16:26;15.10;99.90
11122;DHT22;5615;49.304;10.576;2023-03-23T15:18:55;15.00;99.90
11122;DHT22;5615;49.304;10.576;2023-03-23T15:21:26;15.00;99.90
11122;DHT22;5615;49.304;10.576;2023-03-23T15:23:53;15.00;99.90
11122;DHT22;5615;49.304;10.576;2023-03-23T15:26:28;14.80;99.90
11122;DHT22;5615;49.304;10.576;2023-03-23T15:29:15;14.60;99.90
11122;DHT22;5615;49.304;10.576;2023-03-23T15:31:44;14.60;99.90
11122;DHT22;5615;49.304;10.576;2023-03-23T15:34:17;14.50;99.90
11122;DHT22;5615;49.304;10.576;2023-03-23T15:36:45;14.50;99.90
11122;DHT22;5615;49.304;10.576;2023-03-23T15:39:12;14.50;99.90
11122;DHT22;5615;49.304;10.576;2023-03-23T15:41:47;14.50;99.90
11122;DHT22;5615;49.304;10.576;2023-03-23T15:44:26;14.40;99.90
11122;DHT22;5615;49.304;10.576;2023-03-23T15:47:02;14.40;99.90
11122;DHT22;5615;49.304;10.576;2023-03-23T15:49:30;14.50;99.90
11122;DHT22;5615;49.304;10.576;2023-03-23T15:51:56;14.40;99.90
11122;DHT22;5615;49.304;10.576;2023-03-23T15:54:23;14.50;99.90